St. Stephen, Canada
Current Conditions -  °F | °C
As of 6:43 AM on Thursday 18 Dec 2014 (Local Time) from CYFC Reporting Station
Light Snow Light Snow  
Wind Chill: 20°   Ceiling: 1500
Heat Index: 30°   Visibility: 1.7mi
Dew Point: 30°   Wind: 13mph
Humidity: 100%   Direction: 340°NNW
Pressure: 29.46"   Gusts: NA
Location:  45.19°N, 67.28°W
Report Text: CYFC 181043Z AUTO 34011KT 1 3/4SM -SN OVC015 M01/M01 A2946 RMK SLP976
Loading
Personal Weather Stations






























Interactive Weather Map New forecast layout! Learn more

10-Day Weather Forecast

Advertisements
Track Severe Weather on mobile